createdAt,value
2023-05-04T00:00:54.449Z,17.24
2023-05-04T00:03:23.006Z,17.28
2023-05-04T00:05:51.072Z,17.33
2023-05-04T00:08:18.970Z,17.38
2023-05-04T00:10:46.813Z,17.33
2023-05-04T00:13:14.408Z,17.31
2023-05-04T00:15:42.611Z,17.30
2023-05-04T00:18:10.565Z,17.20
2023-05-04T00:20:39.576Z,17.06
2023-05-04T00:23:07.536Z,16.83
2023-05-04T00:25:34.912Z,16.71
2023-05-04T00:28:02.957Z,16.71
2023-05-04T00:30:30.863Z,16.69
2023-05-04T00:32:58.739Z,16.72
2023-05-04T00:35:26.372Z,16.78
2023-05-04T00:37:54.284Z,16.77
2023-05-04T00:40:22.450Z,16.65
2023-05-04T00:42:57.793Z,16.49
2023-05-04T00:45:30.265Z,16.46
2023-05-04T00:47:58.173Z,16.47
2023-05-04T00:50:26.206Z,16.42
2023-05-04T00:53:02.462Z,16.31
2023-05-04T00:55:30.416Z,16.26
2023-05-04T00:57:58.295Z,16.18
2023-05-04T01:00:25.805Z,16.13
2023-05-04T01:02:53.454Z,16.12
2023-05-04T01:05:21.419Z,16.04
2023-05-04T01:07:52.914Z,16.09
2023-05-04T01:10:24.601Z,16.17
2023-05-04T01:12:58.669Z,16.19
2023-05-04T01:15:26.301Z,16.22
2023-05-04T01:17:54.300Z,16.21
2023-05-04T01:20:21.959Z,16.19
2023-05-04T01:22:49.834Z,16.00
2023-05-04T01:25:17.878Z,15.92
2023-05-04T01:28:03.426Z,15.98
2023-05-04T01:30:32.879Z,16.04
2023-05-04T01:33:00.397Z,16.04
2023-05-04T01:35:28.134Z,16.01
2023-05-04T01:37:55.571Z,15.99
2023-05-04T01:40:23.331Z,16.06
2023-05-04T01:42:50.662Z,16.06
2023-05-04T01:45:19.338Z,16.06
2023-05-04T01:47:47.117Z,16.04
2023-05-04T01:50:14.923Z,16.00
2023-05-04T01:52:42.864Z,15.91
2023-05-04T01:55:10.835Z,15.87
2023-05-04T01:57:38.741Z,15.71
2023-05-04T02:00:08.810Z,15.54
2023-05-04T02:02:43.944Z,15.51
2023-05-04T02:05:11.802Z,15.58
2023-05-04T02:07:39.684Z,15.56
2023-05-04T02:10:10.671Z,15.55
2023-05-04T02:12:38.561Z,15.48
2023-05-04T02:15:09.112Z,15.50
2023-05-04T02:17:36.663Z,15.46
2023-05-04T02:20:12.023Z,15.46
2023-05-04T02:22:39.950Z,15.49
2023-05-04T02:25:08.838Z,15.52
2023-05-04T02:27:36.790Z,15.50
2023-05-04T02:30:05.825Z,15.48
2023-05-04T02:32:34.113Z,15.56
2023-05-04T02:35:01.666Z,15.48
2023-05-04T02:37:33.612Z,15.46
2023-05-04T02:40:01.559Z,15.46
2023-05-04T02:42:29.442Z,15.53
2023-05-04T02:44:57.372Z,15.63
2023-05-04T02:47:25.513Z,15.69
2023-05-04T02:49:52.962Z,15.68
2023-05-04T02:52:20.804Z,15.73
2023-05-04T02:54:49.022Z,15.78
2023-05-04T02:57:17.993Z,15.72
2023-05-04T02:59:45.508Z,15.74
2023-05-04T03:02:13.515Z,15.73
2023-05-04T03:05:01.426Z,15.58
2023-05-04T03:07:28.568Z,15.47
2023-05-04T03:09:56.585Z,15.43
2023-05-04T03:12:25.115Z,15.38
2023-05-04T03:14:52.968Z,15.45
2023-05-04T03:17:20.895Z,15.51
2023-05-04T03:19:48.743Z,15.58
2023-05-04T03:22:16.663Z,15.55
2023-05-04T03:24:44.685Z,15.54
2023-05-04T03:27:12.419Z,15.50
2023-05-04T03:29:40.643Z,15.45
2023-05-04T03:32:08.719Z,15.42
2023-05-04T03:34:36.501Z,15.43
2023-05-04T03:37:04.487Z,15.40
2023-05-04T03:39:33.410Z,15.41
2023-05-04T03:42:01.328Z,15.39
2023-05-04T03:44:29.297Z,15.34
2023-05-04T03:46:57.207Z,15.24
2023-05-04T03:49:25.014Z,15.18
2023-05-04T03:51:53.011Z,15.13
2023-05-04T03:54:20.783Z,15.07
2023-05-04T03:56:48.251Z,15.07
2023-05-04T03:59:16.257Z,15.00
2023-05-04T04:01:44.246Z,14.95
2023-05-04T04:04:11.852Z,14.95
2023-05-04T04:06:41.961Z,14.93
2023-05-04T04:09:10.861Z,14.96
2023-05-04T04:11:38.740Z,14.96
2023-05-04T04:14:06.412Z,14.97
2023-05-04T04:16:34.406Z,14.95
2023-05-04T04:19:02.157Z,14.87
2023-05-04T04:21:29.950Z,14.84
2023-05-04T04:23:57.858Z,14.89
2023-05-04T04:26:25.690Z,14.69
2023-05-04T04:28:53.563Z,14.63
2023-05-04T04:31:21.785Z,14.64
2023-05-04T04:33:50.679Z,14.65
2023-05-04T04:36:18.314Z,14.66
2023-05-04T04:38:46.459Z,14.66
2023-05-04T04:41:14.670Z,14.63
2023-05-04T04:43:42.539Z,14.65
2023-05-04T04:46:10.654Z,14.73
2023-05-04T04:48:38.591Z,14.80
2023-05-04T04:51:10.748Z,14.79
2023-05-04T04:53:38.971Z,14.79
2023-05-04T04:56:07.687Z,14.87
2023-05-04T04:58:35.187Z,14.93
2023-05-04T05:01:05.199Z,14.95
2023-05-04T05:03:33.982Z,14.96
2023-05-04T05:06:01.966Z,14.94
2023-05-04T05:08:29.975Z,14.92
2023-05-04T05:10:58.247Z,15.04
2023-05-04T05:13:25.886Z,15.12
2023-05-04T05:15:53.819Z,15.20
2023-05-04T05:18:21.526Z,15.24
2023-05-04T05:20:49.476Z,15.34
2023-05-04T05:23:17.510Z,15.45
2023-05-04T05:25:44.720Z,15.59
2023-05-04T05:28:14.040Z,15.73
2023-05-04T05:30:42.107Z,15.88
2023-05-04T05:33:10.276Z,16.09
2023-05-04T05:35:38.323Z,16.23
2023-05-04T05:38:08.698Z,16.40
2023-05-04T05:40:37.324Z,16.55
2023-05-04T05:43:06.008Z,16.66
2023-05-04T05:45:33.940Z,16.75
2023-05-04T05:48:01.499Z,16.86
2023-05-04T05:50:29.666Z,16.98
2023-05-04T05:52:57.550Z,17.09
2023-05-04T05:55:25.407Z,17.19
2023-05-04T05:57:53.338Z,17.30
2023-05-04T06:00:22.405Z,17.40
2023-05-04T06:02:50.156Z,17.51
2023-05-04T06:05:20.794Z,17.58
2023-05-04T06:07:48.306Z,17.66
2023-05-04T06:10:16.607Z,17.79
2023-05-04T06:12:44.536Z,17.91
2023-05-04T06:15:14.438Z,18.02
2023-05-04T06:17:42.335Z,18.12
2023-05-04T06:20:10.981Z,18.18
2023-05-04T06:22:38.685Z,18.34
2023-05-04T06:25:08.476Z,18.41
2023-05-04T06:27:36.078Z,18.51
2023-05-04T06:30:04.201Z,18.62
2023-05-04T06:32:32.241Z,18.70
2023-05-04T06:35:00.281Z,18.78
2023-05-04T06:37:28.445Z,18.85
2023-05-04T06:39:56.162Z,18.91
2023-05-04T06:42:24.190Z,18.99
2023-05-04T06:44:53.010Z,19.05
2023-05-04T06:47:20.510Z,19.18
2023-05-04T06:49:48.011Z,19.22
2023-05-04T06:52:15.922Z,19.27
2023-05-04T06:54:43.402Z,19.32
2023-05-04T06:57:11.584Z,19.37
2023-05-04T06:59:38.577Z,19.45
2023-05-04T07:02:06.546Z,19.48
2023-05-04T07:04:34.490Z,19.54
2023-05-04T07:07:02.448Z,19.59
2023-05-04T07:09:30.140Z,19.67
2023-05-04T07:11:58.089Z,19.70
2023-05-04T07:14:25.830Z,19.74
2023-05-04T07:16:53.617Z,19.84
2023-05-04T07:19:21.159Z,19.85
2023-05-04T07:21:48.770Z,19.95
2023-05-04T07:24:16.174Z,20.05
2023-05-04T07:26:44.151Z,20.13
2023-05-04T07:29:12.129Z,20.30
2023-05-04T07:31:39.616Z,20.28
2023-05-04T07:34:07.373Z,20.33
2023-05-04T07:36:37.719Z,20.35
2023-05-04T07:39:05.677Z,20.41
2023-05-04T07:41:33.532Z,20.44
2023-05-04T07:44:01.038Z,20.60
2023-05-04T07:46:29.181Z,20.60
2023-05-04T07:48:56.993Z,20.56
2023-05-04T07:51:24.966Z,20.57
2023-05-04T07:53:52.646Z,20.58
2023-05-04T07:56:20.090Z,20.68
2023-05-04T07:58:51.214Z,20.84
2023-05-04T08:01:18.748Z,20.86
2023-05-04T08:03:47.007Z,20.99
2023-05-04T08:06:14.980Z,21.00
2023-05-04T08:08:43.131Z,20.98
2023-05-04T08:11:20.410Z,21.08
2023-05-04T08:13:49.314Z,21.00
2023-05-04T08:16:17.196Z,21.03
2023-05-04T08:18:44.763Z,21.02
2023-05-04T08:21:12.737Z,21.10
2023-05-04T08:23:40.661Z,21.14
2023-05-04T08:26:08.564Z,21.22
2023-05-04T08:28:39.649Z,21.26
2023-05-04T08:31:07.788Z,21.31
2023-05-04T08:33:35.297Z,21.22
2023-05-04T08:36:04.548Z,21.14
2023-05-04T08:38:32.258Z,21.25
2023-05-04T08:41:05.802Z,21.31
2023-05-04T08:43:36.563Z,21.36
2023-05-04T08:46:04.923Z,21.23
2023-05-04T08:48:35.961Z,21.36
2023-05-04T08:51:04.841Z,21.34
2023-05-04T08:53:32.376Z,21.47
2023-05-04T08:56:04.715Z,21.50
2023-05-04T08:58:31.839Z,21.55
2023-05-04T09:01:00.632Z,21.63
2023-05-04T09:03:28.038Z,21.81
2023-05-04T09:06:17.788Z,21.73
2023-05-04T09:08:45.746Z,21.69
2023-05-04T09:11:13.870Z,21.76
2023-05-04T09:13:43.188Z,21.72
2023-05-04T09:16:10.786Z,21.70
2023-05-04T09:18:37.929Z,21.63
2023-05-04T09:21:09.101Z,21.72
2023-05-04T09:23:51.943Z,21.89
2023-05-04T09:26:33.108Z,22.04
2023-05-04T09:29:13.807Z,22.13
2023-05-04T09:31:49.202Z,22.29
2023-05-04T09:34:17.146Z,22.33
2023-05-04T09:36:44.168Z,22.40
2023-05-04T09:39:13.301Z,22.45
2023-05-04T09:41:41.846Z,22.53
2023-05-04T09:44:18.471Z,22.55
2023-05-04T09:46:59.231Z,22.49
2023-05-04T09:49:37.714Z,22.49
2023-05-04T09:52:06.416Z,22.51
2023-05-04T09:54:35.560Z,22.48
2023-05-04T09:57:15.838Z,22.43
2023-05-04T09:59:43.571Z,22.47
2023-05-04T10:02:22.144Z,22.48
2023-05-04T10:04:51.327Z,22.65
2023-05-04T10:07:19.352Z,22.70
2023-05-04T10:09:47.639Z,22.69
2023-05-04T10:12:17.410Z,22.83
2023-05-04T10:14:47.015Z,22.91
2023-05-04T10:17:36.174Z,23.06
2023-05-04T10:20:27.756Z,22.89
2023-05-04T10:23:22.531Z,22.87
2023-05-04T10:26:28.282Z,22.77
2023-05-04T10:29:23.452Z,22.79
2023-05-04T10:31:51.120Z,22.71
2023-05-04T10:34:31.886Z,22.70
2023-05-04T10:36:59.360Z,22.77
2023-05-04T10:39:55.474Z,22.74
2023-05-04T10:42:22.682Z,22.82
2023-05-04T10:45:15.766Z,22.84
2023-05-04T10:47:43.401Z,22.96
2023-05-04T10:50:12.315Z,23.10
2023-05-04T10:52:46.198Z,23.25
2023-05-04T10:55:13.890Z,23.33
2023-05-04T10:57:52.893Z,23.32
2023-05-04T11:00:20.639Z,23.18
2023-05-04T11:02:48.582Z,23.14
2023-05-04T11:05:20.620Z,23.09
2023-05-04T11:07:52.998Z,23.23
2023-05-04T11:10:45.043Z,23.44
2023-05-04T11:13:13.109Z,23.45
2023-05-04T11:15:47.506Z,23.58
2023-05-04T11:18:14.534Z,23.64
2023-05-04T11:20:42.693Z,23.58
2023-05-04T11:23:10.482Z,23.71
2023-05-04T11:25:38.047Z,23.76
2023-05-04T11:28:06.752Z,23.75
2023-05-04T11:30:35.131Z,23.98
2023-05-04T11:33:05.346Z,23.91
2023-05-04T11:35:33.306Z,23.86
2023-05-04T11:38:01.082Z,23.98
2023-05-04T11:40:29.217Z,23.98
2023-05-04T11:42:57.602Z,24.20
2023-05-04T11:45:27.637Z,24.65
2023-05-04T11:47:56.774Z,25.20
2023-05-04T11:50:24.695Z,25.41
2023-05-04T11:52:52.194Z,25.88
2023-05-04T11:55:27.377Z,26.08
2023-05-04T11:57:58.846Z,26.41
2023-05-04T12:00:39.859Z,26.73
2023-05-04T12:03:08.358Z,26.88
2023-05-04T12:05:36.301Z,27.17
2023-05-04T12:08:03.814Z,27.73
2023-05-04T12:10:34.969Z,28.31
2023-05-04T12:13:15.697Z,28.93
2023-05-04T12:15:44.054Z,29.43
2023-05-04T12:18:21.883Z,29.36
2023-05-04T12:20:49.723Z,29.60
2023-05-04T12:23:17.807Z,29.54
2023-05-04T12:25:57.334Z,29.90
2023-05-04T12:28:27.034Z,30.16
2023-05-04T12:30:54.508Z,30.36
2023-05-04T12:33:22.226Z,31.10
2023-05-04T12:35:55.571Z,31.21
2023-05-04T12:38:23.232Z,31.02
2023-05-04T12:40:50.478Z,31.44
2023-05-04T12:43:20.890Z,31.87
2023-05-04T12:45:49.327Z,32.02
2023-05-04T12:48:17.306Z,31.95
2023-05-04T12:50:45.858Z,32.12
2023-05-04T12:53:13.317Z,32.44
2023-05-04T12:55:40.679Z,32.76
2023-05-04T12:58:08.783Z,33.13
2023-05-04T13:00:37.476Z,33.42
2023-05-04T13:03:05.777Z,33.54
2023-05-04T13:05:33.779Z,33.38
2023-05-04T13:08:01.567Z,33.34
2023-05-04T13:10:29.724Z,33.74
2023-05-04T13:12:57.412Z,34.07
2023-05-04T13:15:25.290Z,34.02
2023-05-04T13:17:53.946Z,34.18
2023-05-04T13:20:22.691Z,34.30
2023-05-04T13:22:51.662Z,34.85
2023-05-04T13:25:19.318Z,35.23
2023-05-04T13:27:47.082Z,35.39
2023-05-04T13:30:18.403Z,35.31
2023-05-04T13:32:46.294Z,35.52
2023-05-04T13:35:14.447Z,35.70
2023-05-04T13:37:42.290Z,35.48
2023-05-04T13:40:12.508Z,35.28
2023-05-04T13:42:39.989Z,34.76
2023-05-04T13:45:11.249Z,34.64
2023-05-04T13:47:40.360Z,34.80
2023-05-04T13:50:10.024Z,35.43
2023-05-04T13:52:37.871Z,35.33
2023-05-04T13:55:07.550Z,35.43
2023-05-04T13:57:35.263Z,35.51
2023-05-04T14:00:07.867Z,35.21
2023-05-04T14:02:36.268Z,35.45
2023-05-04T14:05:08.601Z,35.41
2023-05-04T14:07:36.482Z,35.30
2023-05-04T14:10:04.731Z,35.45
2023-05-04T14:12:32.944Z,35.72
2023-05-04T14:15:01.404Z,35.91
2023-05-04T14:17:29.404Z,35.88
2023-05-04T14:19:58.950Z,35.42
2023-05-04T14:22:26.710Z,34.93
2023-05-04T14:24:54.527Z,34.94
2023-05-04T14:27:22.727Z,34.82
2023-05-04T14:29:50.566Z,35.04
2023-05-04T14:32:18.342Z,35.22
2023-05-04T14:34:46.656Z,35.35
2023-05-04T14:37:14.326Z,35.12
2023-05-04T14:39:42.494Z,35.49
2023-05-04T14:42:10.433Z,35.49
2023-05-04T14:44:38.382Z,35.48
2023-05-04T14:47:07.782Z,35.49
2023-05-04T14:49:37.534Z,35.62
2023-05-04T14:52:06.260Z,35.90
2023-05-04T14:54:33.789Z,36.10
2023-05-04T14:57:01.781Z,36.21
2023-05-04T14:59:32.167Z,35.67
2023-05-04T15:02:00.015Z,35.46
2023-05-04T15:04:27.800Z,35.28
2023-05-04T15:06:55.450Z,35.31
2023-05-04T15:09:22.937Z,35.16
2023-05-04T15:11:50.931Z,34.84
2023-05-04T15:14:18.356Z,34.33
2023-05-04T15:16:45.437Z,34.28
2023-05-04T15:19:12.828Z,34.14
2023-05-04T15:21:40.422Z,34.06
2023-05-04T15:24:08.732Z,34.07
2023-05-04T15:26:36.666Z,34.02
2023-05-04T15:29:04.169Z,33.39
2023-05-04T15:31:31.732Z,32.83
2023-05-04T15:34:00.876Z,32.43
2023-05-04T15:36:28.493Z,32.08
2023-05-04T15:38:55.959Z,32.00
2023-05-04T15:41:23.554Z,31.62
2023-05-04T15:43:51.072Z,30.98
2023-05-04T15:46:18.515Z,30.56
2023-05-04T15:48:46.042Z,30.34
2023-05-04T15:51:13.914Z,30.17
2023-05-04T15:53:44.819Z,29.95
2023-05-04T15:56:15.006Z,29.86
2023-05-04T15:58:42.857Z,29.92
2023-05-04T16:01:14.108Z,30.09
2023-05-04T16:03:43.642Z,30.59
2023-05-04T16:06:12.766Z,31.43
2023-05-04T16:08:40.314Z,32.24
2023-05-04T16:11:08.081Z,32.88
2023-05-04T16:13:36.219Z,33.28
2023-05-04T16:16:05.743Z,33.39
2023-05-04T16:18:33.607Z,33.45
2023-05-04T16:21:01.610Z,33.11
2023-05-04T16:23:29.196Z,32.61
2023-05-04T16:25:56.669Z,31.93
2023-05-04T16:28:24.453Z,31.51
2023-05-04T16:30:52.644Z,30.71
2023-05-04T16:33:20.327Z,30.19
2023-05-04T16:35:48.167Z,29.80
2023-05-04T16:38:16.293Z,29.32
2023-05-04T16:40:44.546Z,28.94
2023-05-04T16:43:12.977Z,28.61
2023-05-04T16:45:40.247Z,28.29
2023-05-04T16:48:07.968Z,28.13
2023-05-04T16:50:35.986Z,27.96
2023-05-04T16:53:03.879Z,27.89
2023-05-04T16:55:31.652Z,27.78
2023-05-04T16:57:59.788Z,27.62
2023-05-04T17:00:27.284Z,27.60
2023-05-04T17:02:54.882Z,27.75
2023-05-04T17:05:22.941Z,27.71
2023-05-04T17:07:51.821Z,27.72
2023-05-04T17:10:19.823Z,27.69
2023-05-04T17:12:47.720Z,27.51
2023-05-04T17:15:15.360Z,27.65
2023-05-04T17:17:43.263Z,28.06
2023-05-04T17:20:15.082Z,28.45
2023-05-04T17:22:43.395Z,28.53
2023-05-04T17:25:12.082Z,28.07
2023-05-04T17:27:39.968Z,27.48
2023-05-04T17:30:10.655Z,27.15
2023-05-04T17:32:38.888Z,26.88
2023-05-04T17:35:16.409Z,26.68
2023-05-04T17:37:51.795Z,26.50
2023-05-04T17:40:19.003Z,26.38
2023-05-04T17:42:46.838Z,26.18
2023-05-04T17:45:14.653Z,26.05
2023-05-04T17:47:46.500Z,25.83
2023-05-04T17:50:14.490Z,25.73
2023-05-04T17:52:42.384Z,25.50
2023-05-04T17:55:10.875Z,25.38
2023-05-04T17:57:38.745Z,25.33
2023-05-04T18:00:10.856Z,25.22
2023-05-04T18:02:38.916Z,25.13
2023-05-04T18:05:10.342Z,25.05
2023-05-04T18:07:38.601Z,24.89
2023-05-04T18:10:08.160Z,24.72
2023-05-04T18:12:37.804Z,24.57
2023-05-04T18:15:09.114Z,24.51
2023-05-04T18:17:40.089Z,24.47
2023-05-04T18:20:10.788Z,24.33
2023-05-04T18:22:38.571Z,24.19
2023-05-04T18:25:09.007Z,24.13
2023-05-04T18:27:36.664Z,24.04
2023-05-04T18:30:06.426Z,23.90
2023-05-04T18:32:34.508Z,23.81
2023-05-04T18:35:01.763Z,23.67
2023-05-04T18:37:32.165Z,23.55
2023-05-04T18:40:00.279Z,23.41
2023-05-04T18:42:28.320Z,23.25
2023-05-04T18:44:56.279Z,23.20
2023-05-04T18:47:23.742Z,23.17
2023-05-04T18:49:52.473Z,23.19
2023-05-04T18:52:20.402Z,23.10
2023-05-04T18:54:48.122Z,23.04
2023-05-04T18:57:16.134Z,22.97
2023-05-04T18:59:43.503Z,22.88
2023-05-04T19:02:11.143Z,22.90
2023-05-04T19:04:39.057Z,22.89
2023-05-04T19:07:06.342Z,22.83
2023-05-04T19:09:34.302Z,22.76
2023-05-04T19:12:02.199Z,22.71
2023-05-04T19:14:31.311Z,22.65
2023-05-04T19:17:00.723Z,22.61
2023-05-04T19:19:28.508Z,22.55
2023-05-04T19:21:56.123Z,22.46
2023-05-04T19:24:24.232Z,22.34
2023-05-04T19:26:51.896Z,22.28
2023-05-04T19:29:19.640Z,22.21
2023-05-04T19:31:55.177Z,22.16
2023-05-04T19:34:23.126Z,22.10
2023-05-04T19:36:50.173Z,22.00
2023-05-04T19:39:18.346Z,21.93
2023-05-04T19:41:46.224Z,21.84
2023-05-04T19:44:14.082Z,21.65
2023-05-04T19:46:42.615Z,21.54
2023-05-04T19:49:11.680Z,21.56
2023-05-04T19:51:39.598Z,21.54
2023-05-04T19:54:07.938Z,21.44
2023-05-04T19:56:36.285Z,21.23
2023-05-04T19:59:04.140Z,20.95
2023-05-04T20:01:32.562Z,20.77
2023-05-04T20:04:00.517Z,20.60
2023-05-04T20:06:28.366Z,20.51
2023-05-04T20:08:56.285Z,20.61
2023-05-04T20:11:23.724Z,20.68
2023-05-04T20:13:51.984Z,20.71
2023-05-04T20:16:20.868Z,20.66
2023-05-04T20:18:48.739Z,20.62
2023-05-04T20:21:16.164Z,20.55
2023-05-04T20:23:43.725Z,20.49
2023-05-04T20:26:11.563Z,20.42
2023-05-04T20:28:39.210Z,20.41
2023-05-04T20:31:07.658Z,20.45
2023-05-04T20:33:36.034Z,20.47
2023-05-04T20:36:05.078Z,20.47
2023-05-04T20:38:33.479Z,20.50
2023-05-04T20:41:08.026Z,20.63
2023-05-04T20:43:36.633Z,20.70
2023-05-04T20:46:07.585Z,20.72
2023-05-04T20:48:35.760Z,20.63
2023-05-04T20:51:14.056Z,20.55
2023-05-04T20:53:42.845Z,20.51
2023-05-04T20:56:10.806Z,20.44
2023-05-04T20:58:38.455Z,20.35
2023-05-04T21:01:06.933Z,20.15
2023-05-04T21:03:35.327Z,20.09
2023-05-04T21:06:02.779Z,20.01
2023-05-04T21:08:30.467Z,19.96
2023-05-04T21:10:58.755Z,19.93
2023-05-04T21:13:26.824Z,19.94
2023-05-04T21:15:54.799Z,19.92
2023-05-04T21:18:22.637Z,19.93
2023-05-04T21:20:50.607Z,19.88
2023-05-04T21:23:18.584Z,19.78
2023-05-04T21:25:46.527Z,19.70
2023-05-04T21:28:14.586Z,19.70
2023-05-04T21:30:46.072Z,19.68
2023-05-04T21:33:13.904Z,19.58
2023-05-04T21:35:41.449Z,19.55
2023-05-04T21:38:12.858Z,19.49
2023-05-04T21:40:40.862Z,19.43
2023-05-04T21:43:08.842Z,19.36
2023-05-04T21:45:36.873Z,19.36
2023-05-04T21:48:05.434Z,19.34
2023-05-04T21:50:33.369Z,19.31
2023-05-04T21:53:00.850Z,19.29
2023-05-04T21:55:30.420Z,19.28
2023-05-04T21:58:18.111Z,19.19
2023-05-04T22:00:45.644Z,19.19
2023-05-04T22:03:13.131Z,19.08
2023-05-04T22:05:48.429Z,19.04
2023-05-04T22:08:16.259Z,18.98
2023-05-04T22:10:44.225Z,18.91
2023-05-04T22:13:12.405Z,18.92
2023-05-04T22:15:49.496Z,18.88
2023-05-04T22:18:18.493Z,18.85
2023-05-04T22:20:46.339Z,18.78
2023-05-04T22:23:14.138Z,18.74
2023-05-04T22:25:41.996Z,18.72
2023-05-04T22:28:09.825Z,18.70
2023-05-04T22:30:37.436Z,18.63
2023-05-04T22:33:05.574Z,18.62
2023-05-04T22:35:33.121Z,18.61
2023-05-04T22:38:00.534Z,18.57
2023-05-04T22:40:28.668Z,18.52
2023-05-04T22:42:56.256Z,18.48
2023-05-04T22:45:24.511Z,18.49
2023-05-04T22:47:59.692Z,18.43
2023-05-04T22:50:28.274Z,18.38
2023-05-04T22:52:56.079Z,18.37
2023-05-04T22:55:24.150Z,18.38
2023-05-04T22:57:52.287Z,18.40
2023-05-04T23:00:22.109Z,18.39
2023-05-04T23:02:57.690Z,18.35
2023-05-04T23:05:25.890Z,18.39
2023-05-04T23:07:53.476Z,18.37
2023-05-04T23:10:21.489Z,18.38
2023-05-04T23:12:49.295Z,18.36
2023-05-04T23:15:18.251Z,18.29
2023-05-04T23:17:46.159Z,18.24
2023-05-04T23:20:14.471Z,18.21
2023-05-04T23:22:42.304Z,18.13
2023-05-04T23:25:10.594Z,18.07
2023-05-04T23:27:39.498Z,18.01
2023-05-04T23:30:10.591Z,17.93
2023-05-04T23:32:42.489Z,17.91
2023-05-04T23:35:10.845Z,17.95
2023-05-04T23:37:38.574Z,17.98
2023-05-04T23:40:13.008Z,17.97
2023-05-04T23:42:40.955Z,17.87
2023-05-04T23:45:11.700Z,17.78
2023-05-04T23:47:39.216Z,17.73
2023-05-04T23:50:10.334Z,17.72
2023-05-04T23:52:38.034Z,17.76
2023-05-04T23:55:06.715Z,17.77
2023-05-04T23:57:34.744Z,17.77
